Time;durP1;ratioP1;P1;durP2;ratioP2;P2;SDS_P1;SDS_P2;PMS_P1;PMS_P2;Temp;Humidity;BMP_temperature;BMP_pressure;BME280_temperature;BME280_humidity;BME280_pressure;Samples;Min_cycle;Max_cycle;Signal;HPM_P1;HPM_P2
2022/09/03 00:01:23;;;;;;;0.25;0.25;;;;;;;;;;10464110;28;20638;-71
2022/09/03 00:06:27;;;;;;;0.30;0.28;;;;;;;;;;10479301;28;20232;-71
2022/09/03 00:11:49;;;;;;;0.45;0.30;;;;;;;;;;10492299;28;20209;-71
2022/09/03 00:16:53;;;;;;;0.20;0.20;;;;;;;;;;10492563;28;20217;-71
2022/09/03 00:21:56;;;;;;;0.20;0.20;;;;;;;;;;10470318;28;20275;-71
2022/09/03 00:27:00;;;;;;;0.20;0.20;;;;;;;;;;10486620;28;20213;-71
2022/09/03 00:32:10;;;;;;;0.10;0.10;;;;;;;;;;10449627;28;20566;-71
2022/09/03 00:37:11;;;;;;;0.28;0.28;;;;;;;;;;10459043;28;20255;-71
2022/09/03 00:42:19;;;;;;;0.20;0.20;;;;;;;;;;10456727;28;20312;-71
2022/09/03 00:47:35;;;;;;;0.20;0.20;;;;;;;;;;10489412;28;20915;-71
2022/09/03 00:52:43;;;;;;;0.13;0.13;;;;;;;;;;10493071;28;20630;-71
2022/09/03 00:57:47;;;;;;;0.57;0.20;;;;;;;;;;10478040;28;20217;-71
2022/09/03 01:02:57;;;;;;;0.10;0.10;;;;;;;;;;10456785;28;20245;-71
2022/09/03 01:08:08;;;;;;;0.20;0.20;;;;;;;;;;10478403;28;20229;-71
2022/09/03 01:13:28;;;;;;;0.20;0.20;;;;;;;;;;10488848;28;20216;-71
2022/09/03 01:18:49;;;;;;;0.20;0.20;;;;;;;;;;10485075;28;20218;-71
2022/09/03 01:23:53;;;;;;;0.10;0.10;;;;;;;;;;10459678;28;20217;-71
2022/09/03 01:29:06;;;;;;;0.20;0.20;;;;;;;;;;10490552;28;20222;-70
2022/09/03 01:34:15;;;;;;;0.20;0.20;;;;;;;;;;10490179;28;20240;-71
2022/09/03 01:39:23;;;;;;;0.20;0.20;;;;;;;;;;10473770;28;20697;-71
2022/09/03 01:44:43;;;;;;;0.10;0.10;;;;;;;;;;10487528;28;20592;-71
2022/09/03 01:49:56;;;;;;;0.20;0.20;;;;;;;;;;10488126;28;20226;-71
2022/09/03 01:55:10;;;;;;;0.20;0.20;;;;;;;;;;10461327;28;20581;-70
2022/09/03 02:00:18;;;;;;;0.20;0.20;;;;;;;;;;10490162;28;20711;-71
2022/09/03 02:05:26;;;;;;;0.20;0.20;;;;;;;;;;10494944;28;20275;-71
2022/09/03 02:10:39;;;;;;;0.13;0.13;;;;;;;;;;10495999;28;20288;-71
2022/09/03 02:15:46;;;;;;;0.20;0.10;;;;;;;;;;10491153;28;20320;-71
2022/09/03 02:20:48;;;;;;;0.10;0.10;;;;;;;;;;10491973;28;20680;-71
2022/09/03 02:25:52;;;;;;;0.30;0.30;;;;;;;;;;10493848;28;20229;-71
2022/09/03 02:30:53;;;;;;;0.35;0.35;;;;;;;;;;10458815;28;20230;-71
2022/09/03 02:35:54;;;;;;;0.20;0.20;;;;;;;;;;10483187;28;20257;-70
2022/09/03 02:40:55;;;;;;;0.20;0.20;;;;;;;;;;10486930;28;20233;-71
2022/09/03 02:45:59;;;;;;;0.22;0.22;;;;;;;;;;10456901;28;20213;-70
2022/09/03 02:51:00;;;;;;;0.20;0.20;;;;;;;;;;10456834;28;20226;-71
2022/09/03 02:56:01;;;;;;;0.20;0.20;;;;;;;;;;10488434;28;20248;-71
2022/09/03 03:01:02;;;;;;;0.20;0.20;;;;;;;;;;10485055;28;20245;-70
2022/09/03 03:06:05;;;;;;;0.20;0.20;;;;;;;;;;10488168;28;20224;-70
2022/09/03 03:11:06;;;;;;;0.20;0.20;;;;;;;;;;10473307;28;20221;-71
2022/09/03 03:16:07;;;;;;;0.20;0.20;;;;;;;;;;10461752;28;20205;-70
2022/09/03 03:21:10;;;;;;;0.20;0.20;;;;;;;;;;10460183;28;21330;-71
2022/09/03 03:26:12;;;;;;;0.20;0.20;;;;;;;;;;10490080;28;20221;-71
2022/09/03 03:31:18;;;;;;;0.40;0.40;;;;;;;;;;10487609;28;20755;-70
2022/09/03 03:36:20;;;;;;;0.28;0.28;;;;;;;;;;10482825;28;20214;-71
2022/09/03 03:41:23;;;;;;;0.30;0.30;;;;;;;;;;10496462;28;20226;-70
2022/09/03 03:46:24;;;;;;;0.20;0.20;;;;;;;;;;10493876;28;20205;-71
2022/09/03 03:51:25;;;;;;;0.25;0.25;;;;;;;;;;10475620;28;20273;-71
2022/09/03 03:56:27;;;;;;;0.20;0.20;;;;;;;;;;10494506;28;20217;-71
2022/09/03 04:01:28;;;;;;;0.30;0.30;;;;;;;;;;10498333;28;20313;-71
2022/09/03 04:06:29;;;;;;;0.40;0.40;;;;;;;;;;10472831;28;20236;-71
2022/09/03 04:11:30;;;;;;;0.30;0.30;;;;;;;;;;10461759;28;20214;-71
2022/09/03 04:16:31;;;;;;;0.40;0.40;;;;;;;;;;10456311;28;20305;-71
2022/09/03 04:21:33;;;;;;;0.30;0.30;;;;;;;;;;10458276;28;20225;-71
2022/09/03 04:26:34;;;;;;;0.30;0.30;;;;;;;;;;10457288;28;20304;-71
2022/09/03 04:31:36;;;;;;;0.40;0.40;;;;;;;;;;10454536;28;20205;-71
2022/09/03 04:36:37;;;;;;;0.40;0.40;;;;;;;;;;10456333;28;20313;-71
2022/09/03 04:41:38;;;;;;;0.38;0.38;;;;;;;;;;10455544;28;20231;-70
2022/09/03 04:46:39;;;;;;;0.50;0.50;;;;;;;;;;10421426;28;20222;-71
2022/09/03 04:51:40;;;;;;;0.45;0.45;;;;;;;;;;10450378;28;20218;-71
2022/09/03 04:56:41;;;;;;;0.32;0.32;;;;;;;;;;10452081;28;20724;-71
2022/09/03 05:01:43;;;;;;;0.32;0.32;;;;;;;;;;10436458;28;20214;-70
2022/09/03 05:06:44;;;;;;;0.30;0.30;;;;;;;;;;10474276;28;20658;-70
2022/09/03 05:11:45;;;;;;;0.40;0.40;;;;;;;;;;10501991;28;20251;-70
2022/09/03 05:16:46;;;;;;;0.40;0.40;;;;;;;;;;10492777;28;20209;-70
2022/09/03 05:21:47;;;;;;;0.85;0.40;;;;;;;;;;10491584;28;20233;-70
2022/09/03 05:26:48;;;;;;;0.40;0.40;;;;;;;;;;10497669;28;20263;-70
2022/09/03 05:31:50;;;;;;;0.40;0.40;;;;;;;;;;10460020;28;20245;-71
2022/09/03 05:36:51;;;;;;;0.30;0.30;;;;;;;;;;10490915;28;20303;-70
2022/09/03 05:41:52;;;;;;;0.60;0.60;;;;;;;;;;10495750;28;20226;-71
2022/09/03 05:46:54;;;;;;;0.40;0.40;;;;;;;;;;10476600;28;20237;-71
2022/09/03 05:51:55;;;;;;;0.77;0.68;;;;;;;;;;10476301;28;20344;-70
2022/09/03 05:56:56;;;;;;;0.50;0.50;;;;;;;;;;10476158;28;20209;-70
2022/09/03 06:01:57;;;;;;;0.50;0.50;;;;;;;;;;10495668;28;20248;-70
2022/09/03 06:06:58;;;;;;;0.40;0.40;;;;;;;;;;10486911;28;20221;-71
2022/09/03 06:11:59;;;;;;;0.50;0.50;;;;;;;;;;10488184;28;20325;-71
2022/09/03 06:17:00;;;;;;;0.43;0.43;;;;;;;;;;10480069;28;20626;-72
2022/09/03 06:22:01;;;;;;;0.63;0.52;;;;;;;;;;10484597;28;20213;-72
2022/09/03 06:27:02;;;;;;;0.47;0.40;;;;;;;;;;10467912;28;20297;-72
2022/09/03 06:32:03;;;;;;;0.55;0.55;;;;;;;;;;10489280;28;20779;-72
2022/09/03 06:37:04;;;;;;;0.63;0.63;;;;;;;;;;10489974;28;20697;-72
2022/09/03 06:42:06;;;;;;;2.08;0.73;;;;;;;;;;10487079;28;20225;-72
2022/09/03 06:47:10;;;;;;;0.40;0.40;;;;;;;;;;10471138;28;20229;-73
2022/09/03 06:52:11;;;;;;;0.50;0.50;;;;;;;;;;10468581;28;20237;-72
2022/09/03 06:57:12;;;;;;;0.65;0.55;;;;;;;;;;10459078;28;20248;-72
2022/09/03 07:02:13;;;;;;;0.50;0.50;;;;;;;;;;10469024;28;20239;-70
2022/09/03 07:07:15;;;;;;;0.60;0.60;;;;;;;;;;10477933;28;20214;-70
2022/09/03 07:12:18;;;;;;;0.40;0.40;;;;;;;;;;10481860;28;20695;-71
2022/09/03 07:17:19;;;;;;;0.40;0.40;;;;;;;;;;10486931;28;20244;-70
2022/09/03 07:22:20;;;;;;;0.55;0.55;;;;;;;;;;10496583;28;20300;-74
2022/09/03 07:27:21;;;;;;;0.32;0.32;;;;;;;;;;10487663;28;20245;-75
2022/09/03 07:32:22;;;;;;;0.38;0.38;;;;;;;;;;10464742;28;20210;-71
2022/09/03 07:37:23;;;;;;;0.55;0.55;;;;;;;;;;10484488;28;21027;-71
2022/09/03 07:42:26;;;;;;;0.40;0.40;;;;;;;;;;10489908;28;20249;-70
2022/09/03 07:47:29;;;;;;;0.40;0.40;;;;;;;;;;10486322;28;20217;-70
2022/09/03 07:52:30;;;;;;;0.30;0.30;;;;;;;;;;10478906;28;20217;-70
2022/09/03 07:57:31;;;;;;;0.40;0.40;;;;;;;;;;10485956;28;21019;-70
2022/09/03 08:02:32;;;;;;;0.40;0.40;;;;;;;;;;10480402;28;20216;-70
2022/09/03 08:07:33;;;;;;;0.30;0.30;;;;;;;;;;10477607;28;20214;-71
2022/09/03 08:12:34;;;;;;;0.45;0.32;;;;;;;;;;10485121;28;20730;-71
2022/09/03 08:17:35;;;;;;;0.40;0.40;;;;;;;;;;10477706;28;20228;-70
2022/09/03 08:22:36;;;;;;;0.30;0.30;;;;;;;;;;10471237;28;20226;-70
2022/09/03 08:27:37;;;;;;;1.13;0.30;;;;;;;;;;10485387;28;20210;-69
2022/09/03 08:32:39;;;;;;;0.50;0.50;;;;;;;;;;10488102;28;20820;-70
2022/09/03 08:37:40;;;;;;;1.52;0.38;;;;;;;;;;10484400;28;20218;-69
2022/09/03 08:42:45;;;;;;;0.45;0.40;;;;;;;;;;10486331;28;20226;-71
2022/09/03 08:47:51;;;;;;;0.30;0.30;;;;;;;;;;10484939;28;20295;-70
2022/09/03 08:53:16;;;;;;;3.83;0.77;;;;;;;;;;10484504;28;20217;-70
2022/09/03 08:58:22;;;;;;;0.45;0.40;;;;;;;;;;10482306;28;20329;-69
2022/09/03 09:03:42;;;;;;;0.32;0.30;;;;;;;;;;10479173;28;20304;-73
2022/09/03 09:09:19;;;;;;;0.22;0.22;;;;;;;;;;10480923;28;20804;-72
2022/09/03 09:14:35;;;;;;;0.30;0.30;;;;;;;;;;10375801;28;20218;-69
2022/09/03 09:19:51;;;;;;;0.65;0.30;;;;;;;;;;10481386;28;20213;-70
2022/09/03 09:24:54;;;;;;;0.20;0.20;;;;;;;;;;10485306;28;20829;-70
2022/09/03 09:29:57;;;;;;;0.30;0.30;;;;;;;;;;10488600;28;20596;-70
2022/09/03 09:34:58;;;;;;;0.30;0.30;;;;;;;;;;10478092;28;20359;-70
2022/09/03 09:40:00;;;;;;;0.20;0.20;;;;;;;;;;10485308;28;20751;-70
2022/09/03 09:45:08;;;;;;;0.30;0.30;;;;;;;;;;10482963;28;20210;-72
2022/09/03 09:50:20;;;;;;;0.28;0.28;;;;;;;;;;10477693;28;20332;-71
2022/09/03 09:55:22;;;;;;;0.57;0.30;;;;;;;;;;10452870;28;20178;-71
2022/09/03 10:00:23;;;;;;;0.28;0.28;;;;;;;;;;10482879;28;20580;-71
2022/09/03 10:05:26;;;;;;;0.75;0.30;;;;;;;;;;10452286;28;20214;-71
2022/09/03 10:10:30;;;;;;;0.30;0.30;;;;;;;;;;10487909;28;20772;-70
2022/09/03 10:15:35;;;;;;;0.40;0.40;;;;;;;;;;10457764;28;20206;-70
2022/09/03 10:20:43;;;;;;;1.15;0.35;;;;;;;;;;10483570;28;20249;-72
2022/09/03 10:25:54;;;;;;;0.40;0.40;;;;;;;;;;10462125;28;20656;-74
2022/09/03 10:31:05;;;;;;;0.43;0.32;;;;;;;;;;10474246;28;20239;-70
2022/09/03 10:36:06;;;;;;;0.40;0.40;;;;;;;;;;10481882;28;20218;-71
2022/09/03 10:41:13;;;;;;;0.30;0.30;;;;;;;;;;10451129;28;20754;-72
2022/09/03 10:46:21;;;;;;;0.30;0.30;;;;;;;;;;10474221;28;20313;-73
2022/09/03 10:51:25;;;;;;;0.30;0.30;;;;;;;;;;10472123;28;20366;-73
2022/09/03 10:56:32;;;;;;;0.30;0.30;;;;;;;;;;10483010;28;20214;-73
2022/09/03 11:01:36;;;;;;;0.35;0.35;;;;;;;;;;10483546;28;20228;-74
2022/09/03 11:06:42;;;;;;;0.30;0.30;;;;;;;;;;10459983;28;20234;-72
2022/09/03 11:11:49;;;;;;;0.35;0.30;;;;;;;;;;10442588;28;20701;-73
2022/09/03 11:16:54;;;;;;;0.30;0.30;;;;;;;;;;10442101;28;20222;-71
2022/09/03 11:21:55;;;;;;;0.50;0.50;;;;;;;;;;10441534;28;20620;-73
2022/09/03 11:27:02;;;;;;;0.30;0.30;;;;;;;;;;10440499;28;20213;-73
2022/09/03 11:32:18;;;;;;;0.40;0.40;;;;;;;;;;10441757;28;20215;-74
2022/09/03 11:37:29;;;;;;;0.30;0.30;;;;;;;;;;10440861;28;20210;-74
2022/09/03 11:42:32;;;;;;;0.38;0.38;;;;;;;;;;10448375;28;20318;-73
2022/09/03 11:47:38;;;;;;;0.40;0.40;;;;;;;;;;10429003;28;20218;-73
2022/09/03 11:52:39;;;;;;;0.32;0.32;;;;;;;;;;10414728;28;20565;-74
2022/09/03 11:57:45;;;;;;;0.30;0.30;;;;;;;;;;10415930;28;20221;-74
2022/09/03 12:02:52;;;;;;;0.30;0.30;;;;;;;;;;10449060;28;20218;-74
2022/09/03 12:08:08;;;;;;;0.63;0.50;;;;;;;;;;10477620;28;20226;-73
2022/09/03 12:13:17;;;;;;;0.40;0.40;;;;;;;;;;10482104;28;20230;-74
2022/09/03 12:18:22;;;;;;;0.50;0.50;;;;;;;;;;10484472;28;20304;-74
2022/09/03 12:23:28;;;;;;;0.45;0.45;;;;;;;;;;10454855;28;20258;-76
2022/09/03 12:28:31;;;;;;;0.30;0.30;;;;;;;;;;10486515;28;20213;-75
2022/09/03 12:33:33;;;;;;;0.30;0.30;;;;;;;;;;10480289;28;20214;-75
2022/09/03 12:38:34;;;;;;;0.50;0.50;;;;;;;;;;10484013;28;20210;-75
2022/09/03 12:43:35;;;;;;;0.50;0.50;;;;;;;;;;10485551;28;20241;-74
2022/09/03 12:48:36;;;;;;;0.40;0.40;;;;;;;;;;10477710;28;20217;-76
2022/09/03 12:53:37;;;;;;;0.30;0.30;;;;;;;;;;10484195;28;20214;-74
2022/09/03 12:58:38;;;;;;;0.32;0.32;;;;;;;;;;10480116;28;20217;-74
2022/09/03 13:03:56;;;;;;;0.40;0.40;;;;;;;;;;10456951;28;20784;-74
2022/09/03 13:09:02;;;;;;;0.40;0.40;;;;;;;;;;10479273;28;20260;-74
2022/09/03 13:14:09;;;;;;;0.40;0.40;;;;;;;;;;10475871;28;20216;-69
2022/09/03 13:19:25;;;;;;;0.30;0.30;;;;;;;;;;10478708;28;20217;-74
2022/09/03 13:24:49;;;;;;;0.43;0.43;;;;;;;;;;10480943;28;20216;-77
2022/09/03 13:30:00;;;;;;;0.40;0.40;;;;;;;;;;10481002;28;20213;-76
2022/09/03 13:35:22;;;;;;;0.77;0.40;;;;;;;;;;10479737;28;20206;-73
2022/09/03 13:40:38;;;;;;;0.40;0.40;;;;;;;;;;10470409;28;23906;-75
2022/09/03 13:45:40;;;;;;;2.28;0.47;;;;;;;;;;10437659;28;20214;-76
2022/09/03 13:50:46;;;;;;;0.75;0.40;;;;;;;;;;10483828;28;20229;-74
2022/09/03 13:55:49;;;;;;;0.85;0.43;;;;;;;;;;10478475;28;20214;-75
2022/09/03 14:01:10;;;;;;;0.28;0.28;;;;;;;;;;10481794;28;20672;-74
2022/09/03 14:06:20;;;;;;;0.77;0.40;;;;;;;;;;10468291;28;20218;-76
2022/09/03 14:11:40;;;;;;;0.40;0.40;;;;;;;;;;10480173;28;20239;-77
2022/09/03 14:17:00;;;;;;;1.23;0.50;;;;;;;;;;10482877;28;20233;-75
2022/09/03 14:22:04;;;;;;;0.40;0.40;;;;;;;;;;10458921;28;20221;-75
2022/09/03 14:27:06;;;;;;;0.75;0.60;;;;;;;;;;10453854;28;20345;-75
2022/09/03 14:32:26;;;;;;;0.50;0.35;;;;;;;;;;10461840;28;20679;-73
2022/09/03 14:37:44;;;;;;;0.50;0.50;;;;;;;;;;10469137;28;20221;-75
2022/09/03 14:43:00;;;;;;;0.40;0.40;;;;;;;;;;10487846;28;20380;-76
2022/09/03 14:48:09;;;;;;;0.82;0.50;;;;;;;;;;10458097;28;20226;-76
2022/09/03 14:53:10;;;;;;;0.60;0.60;;;;;;;;;;10481527;28;20218;-76
2022/09/03 14:58:27;;;;;;;0.50;0.50;;;;;;;;;;10487788;28;20209;-76
2022/09/03 15:03:37;;;;;;;0.50;0.50;;;;;;;;;;10486983;28;20218;-76
2022/09/03 15:08:38;;;;;;;0.60;0.60;;;;;;;;;;10439497;28;20744;-76
2022/09/03 15:13:47;;;;;;;0.82;0.63;;;;;;;;;;10463532;28;20224;-75
2022/09/03 15:18:48;;;;;;;0.52;0.52;;;;;;;;;;10467357;28;20673;-76
2022/09/03 15:24:12;;;;;;;0.47;0.47;;;;;;;;;;10485587;28;20843;-75
2022/09/03 15:29:32;;;;;;;0.40;0.40;;;;;;;;;;10473154;28;20212;-78
2022/09/03 15:34:59;;;;;;;0.50;0.50;;;;;;;;;;10483051;28;20210;-79
2022/09/03 15:40:23;;;;;;;0.60;0.60;;;;;;;;;;10484858;28;21196;-76
2022/09/03 15:45:27;;;;;;;0.52;0.52;;;;;;;;;;10488171;28;20213;-77
2022/09/03 15:50:35;;;;;;;0.70;0.70;;;;;;;;;;10468829;28;20221;-76
2022/09/03 15:55:41;;;;;;;0.60;0.60;;;;;;;;;;10492692;28;20206;-76
2022/09/03 16:00:43;;;;;;;0.57;0.57;;;;;;;;;;10487406;28;20726;-77
2022/09/03 16:05:54;;;;;;;0.65;0.50;;;;;;;;;;10495013;28;20230;-77
2022/09/03 16:11:08;;;;;;;1.20;0.60;;;;;;;;;;10496684;28;20211;-78
2022/09/03 16:16:12;;;;;;;0.77;0.40;;;;;;;;;;10480713;28;20305;-79
2022/09/03 16:21:13;;;;;;;0.75;0.50;;;;;;;;;;10487468;28;20615;-78
2022/09/03 16:26:33;;;;;;;0.43;0.43;;;;;;;;;;10494891;28;20220;-78
2022/09/03 16:31:36;;;;;;;0.55;0.55;;;;;;;;;;10485849;28;20312;-79
2022/09/03 16:36:45;;;;;;;0.60;0.60;;;;;;;;;;10482988;28;20214;-77
2022/09/03 16:41:46;;;;;;;0.90;0.90;;;;;;;;;;10485394;28;20294;-77
2022/09/03 16:47:05;;;;;;;0.60;0.60;;;;;;;;;;10471715;28;20304;-77
2022/09/03 16:52:13;;;;;;;0.60;0.60;;;;;;;;;;10495049;28;20213;-77
2022/09/03 16:57:23;;;;;;;0.40;0.40;;;;;;;;;;10466242;28;20263;-77
2022/09/03 17:02:43;;;;;;;1.23;0.50;;;;;;;;;;10472714;28;20222;-78
2022/09/03 17:07:55;;;;;;;0.90;0.50;;;;;;;;;;10495939;28;20308;-76
2022/09/03 17:13:09;;;;;;;0.40;0.40;;;;;;;;;;10488128;28;20214;-79
2022/09/03 17:18:24;;;;;;;0.73;0.60;;;;;;;;;;10506477;28;20222;-79
2022/09/03 17:23:44;;;;;;;0.68;0.50;;;;;;;;;;10499572;28;20282;-77
2022/09/03 17:29:04;;;;;;;1.17;0.60;;;;;;;;;;10500857;28;20220;-79
2022/09/03 17:34:18;;;;;;;1.45;0.60;;;;;;;;;;10493223;28;20263;-79
2022/09/03 17:39:37;;;;;;;0.50;0.50;;;;;;;;;;10490233;28;20214;-79
2022/09/03 17:44:50;;;;;;;0.60;0.60;;;;;;;;;;10486214;28;20206;-78
2022/09/03 17:49:56;;;;;;;0.68;0.68;;;;;;;;;;10486668;28;20243;-78
2022/09/03 17:55:00;;;;;;;0.70;0.70;;;;;;;;;;10473704;28;20320;-78
2022/09/03 18:00:08;;;;;;;0.45;0.45;;;;;;;;;;10486083;28;20241;-74
2022/09/03 18:05:31;;;;;;;1.58;0.47;;;;;;;;;;10488588;28;20787;-73
2022/09/03 18:10:51;;;;;;;1.67;0.50;;;;;;;;;;10486381;28;20220;-73
2022/09/03 18:15:55;;;;;;;0.98;0.50;;;;;;;;;;10488947;28;20789;-73
2022/09/03 20:15:15;;;;;;;0.88;0.63;;;;;;;;;;10503969;28;20292;-83
2022/09/03 20:20:19;;;;;;;0.60;0.60;;;;;;;;;;10516220;28;20209;-84
2022/09/03 20:25:22;;;;;;;1.00;0.70;;;;;;;;;;10514088;28;20296;-83
2022/09/03 20:30:27;;;;;;;0.68;0.68;;;;;;;;;;10512758;28;20174;-84
2022/09/03 20:35:46;;;;;;;0.50;0.50;;;;;;;;;;10515773;28;20210;-83
2022/09/03 20:41:11;;;;;;;0.60;0.60;;;;;;;;;;10508188;28;20238;-83
2022/09/03 20:46:24;;;;;;;0.65;0.63;;;;;;;;;;10499318;28;20209;-84
2022/09/03 20:51:31;;;;;;;0.63;0.63;;;;;;;;;;10507683;28;20227;-82
2022/09/03 20:56:35;;;;;;;0.98;0.70;;;;;;;;;;10513945;28;20237;-83
2022/09/03 21:01:45;;;;;;;0.70;0.70;;;;;;;;;;10514240;28;20232;-84
2022/09/03 21:07:01;;;;;;;0.65;0.65;;;;;;;;;;10515936;28;20229;-84
2022/09/03 21:12:21;;;;;;;0.60;0.60;;;;;;;;;;10507797;28;20217;-84
2022/09/03 21:17:41;;;;;;;1.65;0.50;;;;;;;;;;10514843;28;20256;-84
2022/09/03 21:22:45;;;;;;;0.90;0.90;;;;;;;;;;10510814;28;20716;-84
2022/09/03 21:27:50;;;;;;;1.40;0.80;;;;;;;;;;10522167;28;20304;-85
2022/09/03 21:32:54;;;;;;;0.68;0.68;;;;;;;;;;10515798;28;20222;-85
2022/09/03 21:37:58;;;;;;;0.75;0.75;;;;;;;;;;10517717;28;21169;-85
2022/09/03 21:42:59;;;;;;;0.65;0.65;;;;;;;;;;10510689;28;20225;-85
2022/09/03 21:48:09;;;;;;;2.15;0.70;;;;;;;;;;10517392;28;20669;-85
2022/09/03 21:53:16;;;;;;;0.65;0.57;;;;;;;;;;10513113;28;20210;-85
2022/09/03 21:58:31;;;;;;;0.80;0.80;;;;;;;;;;10513974;28;20209;-84
2022/09/03 22:03:32;;;;;;;0.80;0.80;;;;;;;;;;10508720;28;20229;-84
2022/09/03 22:08:48;;;;;;;1.23;0.93;;;;;;;;;;10517721;28;20247;-85
2022/09/03 22:13:53;;;;;;;0.95;0.95;;;;;;;;;;10507021;28;20209;-85
2022/09/03 22:18:54;;;;;;;0.90;0.85;;;;;;;;;;10463720;28;20892;-85
2022/09/03 22:24:17;;;;;;;1.00;1.00;;;;;;;;;;10505656;28;20241;-84
2022/09/03 22:29:24;;;;;;;0.90;0.90;;;;;;;;;;10471100;28;20271;-85
2022/09/03 22:34:29;;;;;;;0.60;0.60;;;;;;;;;;10501212;28;20280;-85
2022/09/03 22:39:37;;;;;;;0.70;0.70;;;;;;;;;;10515640;28;20229;-86
2022/09/03 22:44:44;;;;;;;0.70;0.70;;;;;;;;;;10489172;28;20216;-85
2022/09/03 22:49:57;;;;;;;0.77;0.65;;;;;;;;;;10520391;28;20288;-84
2022/09/03 22:55:05;;;;;;;0.70;0.70;;;;;;;;;;10497201;28;20222;-85
2022/09/03 23:00:07;;;;;;;0.88;0.88;;;;;;;;;;10521928;28;20226;-75
2022/09/03 23:05:17;;;;;;;0.80;0.80;;;;;;;;;;10529480;28;20285;-84
2022/09/03 23:10:24;;;;;;;0.70;0.70;;;;;;;;;;10529334;28;20170;-85
2022/09/03 23:15:29;;;;;;;0.90;0.90;;;;;;;;;;10533084;28;20226;-84
2022/09/03 23:20:30;;;;;;;1.38;0.80;;;;;;;;;;10503161;28;20229;-86
2022/09/03 23:25:42;;;;;;;1.42;0.80;;;;;;;;;;10530154;28;20214;-85
2022/09/03 23:30:43;;;;;;;0.80;0.80;;;;;;;;;;10513370;28;20229;-86
2022/09/03 23:35:48;;;;;;;1.00;0.90;;;;;;;;;;10512393;28;20206;-86
2022/09/03 23:40:51;;;;;;;0.80;0.80;;;;;;;;;;10520929;28;20229;-85
2022/09/03 23:45:59;;;;;;;0.75;0.75;;;;;;;;;;10519995;28;20230;-86
2022/09/03 23:51:12;;;;;;;0.60;0.60;;;;;;;;;;10517582;28;20278;-86
2022/09/03 23:56:14;;;;;;;0.98;0.98;;;;;;;;;;10522466;28;20655;-84
